createdAt,value
2022-08-10T00:00:55.900Z,101988.31
2022-08-10T00:03:22.586Z,101985.50
2022-08-10T00:05:52.816Z,101983.47
2022-08-10T00:08:23.593Z,101983.41
2022-08-10T00:10:55.392Z,101977.75
2022-08-10T00:13:22.989Z,101982.19
2022-08-10T00:15:53.918Z,101972.44
2022-08-10T00:18:35.062Z,101978.13
2022-08-10T00:21:07.279Z,101980.53
2022-08-10T00:23:34.890Z,101968.75
2022-08-10T00:26:02.192Z,101973.59
2022-08-10T00:28:28.797Z,101980.47
2022-08-10T00:30:55.507Z,101972.78
2022-08-10T00:33:22.151Z,101970.31
2022-08-10T00:35:49.182Z,101969.06
2022-08-10T00:38:16.086Z,101969.47
2022-08-10T00:40:42.751Z,101972.28
2022-08-10T00:43:09.535Z,101967.41
2022-08-10T00:45:36.702Z,101965.78
2022-08-10T00:48:04.031Z,101964.53
2022-08-10T00:50:31.091Z,101966.97
2022-08-10T00:52:57.800Z,101966.56
2022-08-10T00:55:24.705Z,101969.72
2022-08-10T00:57:54.871Z,101965.25
2022-08-10T01:00:23.154Z,101970.91
2022-08-10T01:02:49.752Z,101969.66
2022-08-10T01:05:16.538Z,101972.88
2022-08-10T01:07:56.697Z,101971.22
2022-08-10T01:10:37.592Z,101970.38
2022-08-10T01:14:08.896Z,101976.44
2022-08-10T01:16:50.174Z,101967.94
2022-08-10T01:19:46.839Z,101962.66
2022-08-10T01:22:41.379Z,101952.91
2022-08-10T01:25:11.301Z,101953.72
2022-08-10T01:27:57.522Z,101953.66
2022-08-10T01:30:28.642Z,101961.75
2022-08-10T01:33:08.629Z,101956.03
2022-08-10T01:35:45.555Z,101945.50
2022-08-10T01:38:20.944Z,101955.59
2022-08-10T01:40:54.887Z,101943.41
2022-08-10T01:43:24.448Z,101945.44
2022-08-10T01:45:55.445Z,101945.81
2022-08-10T01:48:28.281Z,101945.78
2022-08-10T01:51:09.322Z,101945.75
2022-08-10T01:53:41.866Z,101946.91
2022-08-10T01:56:12.245Z,101939.22
2022-08-10T01:58:39.724Z,101948.09
2022-08-10T02:01:09.735Z,101939.97
2022-08-10T02:04:05.165Z,101946.81
2022-08-10T02:06:30.106Z,101945.13
2022-08-10T02:09:06.210Z,101948.78
2022-08-10T02:12:07.784Z,101949.13
2022-08-10T02:14:23.767Z,101943.44
2022-08-10T02:16:51.430Z,101938.97
2022-08-10T02:19:21.962Z,101938.97
2022-08-10T02:22:37.137Z,101938.53
2022-08-10T02:24:40.923Z,101938.06
2022-08-10T02:27:09.214Z,101934.75
2022-08-10T02:29:38.005Z,101937.94
2022-08-10T02:32:10.354Z,101954.91
2022-08-10T02:34:39.240Z,101952.84
2022-08-10T02:37:10.786Z,101946.31
2022-08-10T02:39:37.890Z,101951.56
2022-08-10T02:45:13.652Z,101956.34
2022-08-10T02:45:21.566Z,101948.63
2022-08-10T02:48:01.600Z,101947.00
2022-08-10T02:50:36.701Z,101946.94
2022-08-10T02:53:08.185Z,101953.81
2022-08-10T02:56:06.476Z,101953.78
2022-08-10T02:58:58.963Z,101952.53
2022-08-10T03:01:32.294Z,101955.38
2022-08-10T03:04:07.654Z,101954.13
2022-08-10T03:06:39.882Z,101950.44
2022-08-10T03:09:08.550Z,101958.50
2022-08-10T03:12:36.209Z,101958.91
2022-08-10T03:14:24.358Z,101965.31
2022-08-10T03:16:54.411Z,101968.09
2022-08-10T03:20:34.314Z,101966.88
2022-08-10T03:22:10.257Z,101957.13
2022-08-10T03:24:36.805Z,101962.78
2022-08-10T03:27:05.048Z,101967.22
2022-08-10T03:30:28.119Z,101957.91
2022-08-10T03:32:20.747Z,101958.25
2022-08-10T03:34:48.226Z,101967.03
2022-08-10T03:37:14.876Z,101959.34
2022-08-10T03:39:41.525Z,101954.44
2022-08-10T03:42:12.923Z,101958.06
2022-08-10T03:44:43.047Z,101949.94
2022-08-10T03:47:15.285Z,101960.81
2022-08-10T03:49:46.772Z,101957.53
2022-08-10T03:52:15.186Z,101955.09
2022-08-10T03:54:42.812Z,101948.59
2022-08-10T03:57:09.925Z,101944.13
2022-08-10T03:59:37.023Z,101944.84
2022-08-10T04:02:45.980Z,101954.13
2022-08-10T04:04:53.229Z,101948.03
2022-08-10T04:07:19.777Z,101945.97
2022-08-10T04:09:54.889Z,101939.06
2022-08-10T04:12:23.480Z,101943.91
2022-08-10T04:14:52.925Z,101949.94
2022-08-10T04:18:03.038Z,101950.69
2022-08-10T04:20:25.610Z,101949.06
2022-08-10T04:22:57.642Z,101947.88
2022-08-10T04:25:27.904Z,101940.97
2022-08-10T04:27:55.260Z,101944.16
2022-08-10T04:30:22.726Z,101949.81
2022-08-10T04:32:53.627Z,101944.16
2022-08-10T04:35:22.792Z,101955.13
2022-08-10T04:37:51.071Z,101954.34
2022-08-10T04:40:28.798Z,101956.81
2022-08-10T04:43:11.723Z,101955.16
2022-08-10T04:45:47.587Z,101956.41
2022-08-10T04:48:41.634Z,101952.84
2022-08-10T04:51:17.940Z,101953.66
2022-08-10T04:54:04.706Z,101950.03
2022-08-10T04:56:39.074Z,101953.31
2022-08-10T04:59:06.993Z,101954.53
2022-08-10T05:02:22.059Z,101951.81
2022-08-10T05:04:36.307Z,101948.22
2022-08-10T05:07:10.859Z,101955.16
2022-08-10T05:10:01.154Z,101960.03
2022-08-10T05:12:26.134Z,101964.19
2022-08-10T05:14:53.857Z,101952.53
2022-08-10T05:17:21.623Z,101961.50
2022-08-10T05:20:03.031Z,101964.84
2022-08-10T05:22:36.272Z,101958.03
2022-08-10T05:25:04.810Z,101963.34
2022-08-10T05:27:31.382Z,101960.56
2022-08-10T05:30:01.486Z,101954.94
2022-08-10T05:32:30.004Z,101959.06
2022-08-10T05:34:56.731Z,101961.56
2022-08-10T05:38:08.898Z,101960.38
2022-08-10T05:40:12.257Z,101966.16
2022-08-10T05:42:40.900Z,101959.72
2022-08-10T05:45:15.837Z,101969.84
2022-08-10T05:48:54.221Z,101965.41
2022-08-10T05:50:31.176Z,101963.41
2022-08-10T05:52:58.412Z,101961.75
2022-08-10T05:55:31.101Z,101965.03
2022-08-10T05:57:59.889Z,101964.69
2022-08-10T06:00:36.728Z,101969.94
2022-08-10T06:03:08.467Z,101965.13
2022-08-10T06:05:39.649Z,101957.91
2022-08-10T06:08:09.572Z,101967.25
2022-08-10T06:10:50.874Z,101964.50
2022-08-10T06:14:00.038Z,101971.47
2022-08-10T06:16:33.062Z,101981.28
2022-08-10T06:19:02.081Z,101968.78
2022-08-10T06:21:28.879Z,101972.47
2022-08-10T06:23:59.419Z,101980.63
2022-08-10T06:26:25.921Z,101980.28
2022-08-10T06:29:03.145Z,101981.94
2022-08-10T06:31:48.184Z,101982.38
2022-08-10T06:34:20.828Z,101982.44
2022-08-10T06:36:48.538Z,101987.34
2022-08-10T06:39:34.161Z,101976.84
2022-08-10T06:42:15.892Z,101984.56
2022-08-10T06:44:53.718Z,101987.47
2022-08-10T06:47:23.520Z,101987.13
2022-08-10T06:49:59.898Z,101987.56
2022-08-10T06:52:28.602Z,101975.88
2022-08-10T06:54:58.441Z,101978.78
2022-08-10T06:57:26.534Z,101982.50
2022-08-10T06:59:54.293Z,101974.44
2022-08-10T07:02:32.224Z,101972.44
2022-08-10T07:05:08.634Z,101980.63
2022-08-10T07:07:39.162Z,101983.06
2022-08-10T07:10:07.149Z,101981.09
2022-08-10T07:12:37.077Z,101981.09
2022-08-10T07:15:06.987Z,101978.66
2022-08-10T07:17:39.557Z,101973.38
2022-08-10T07:20:11.258Z,101979.06
2022-08-10T07:23:08.153Z,101974.59
2022-08-10T07:25:28.344Z,101978.69
2022-08-10T07:28:00.859Z,101976.63
2022-08-10T07:30:36.768Z,101973.81
2022-08-10T07:33:05.277Z,101971.31
2022-08-10T07:35:41.942Z,101975.34
2022-08-10T07:38:13.797Z,101975.19
2022-08-10T07:40:42.243Z,101970.50
2022-08-10T07:43:09.734Z,101977.09
2022-08-10T07:45:38.984Z,101975.69
2022-08-10T07:48:11.694Z,101971.78
2022-08-10T07:50:40.455Z,101968.81
2022-08-10T07:53:12.282Z,101969.41
2022-08-10T07:56:03.448Z,101973.03
2022-08-10T07:58:38.431Z,101975.16
2022-08-10T08:01:05.181Z,101976.97
2022-08-10T08:03:32.934Z,101967.66
2022-08-10T08:06:05.314Z,101974.09
2022-08-10T08:08:40.583Z,101971.69
2022-08-10T08:11:09.145Z,101967.50
2022-08-10T08:13:53.817Z,101973.00
2022-08-10T08:16:22.349Z,101964.75
2022-08-10T08:19:16.475Z,101968.13
2022-08-10T08:24:04.648Z,101973.09
2022-08-10T08:24:32.561Z,101972.75
2022-08-10T08:27:02.810Z,101981.63
2022-08-10T08:29:33.302Z,101970.56
2022-08-10T08:32:03.233Z,101969.00
2022-08-10T08:34:37.493Z,101973.00
2022-08-10T08:37:05.617Z,101971.56
2022-08-10T08:39:33.566Z,101969.13
2022-08-10T08:42:23.455Z,101968.81
2022-08-10T08:45:07.817Z,101967.06
2022-08-10T08:48:03.891Z,101966.06
2022-08-10T08:50:57.363Z,101962.69
2022-08-10T08:54:00.914Z,101961.34
2022-08-10T08:56:35.855Z,101951.16
2022-08-10T08:59:19.567Z,101954.38
2022-08-10T09:02:11.696Z,101951.97
2022-08-10T09:04:55.723Z,101957.31
2022-08-10T09:08:02.887Z,101946.72
2022-08-10T09:11:00.225Z,101944.94
2022-08-10T09:13:41.287Z,101936.13
2022-08-10T09:16:16.841Z,101928.81
2022-08-10T09:19:07.823Z,101930.81
2022-08-10T09:21:59.163Z,101933.03
2022-08-10T09:24:51.956Z,101921.16
2022-08-10T09:27:21.730Z,101919.34
2022-08-10T09:30:02.735Z,101917.13
2022-08-10T09:35:39.385Z,101918.41
2022-08-10T09:36:29.832Z,101916.34
2022-08-10T09:38:36.107Z,101915.75
2022-08-10T09:41:13.164Z,101910.91
2022-08-10T09:43:59.110Z,101913.72
2022-08-10T09:46:44.305Z,101913.00
2022-08-10T09:49:54.069Z,101906.78
2022-08-10T09:52:24.019Z,101901.25
2022-08-10T09:54:53.541Z,101898.38
2022-08-10T09:57:44.251Z,101898.00
2022-08-10T10:00:16.059Z,101893.88
2022-08-10T10:03:07.422Z,101892.25
2022-08-10T10:05:52.215Z,101892.13
2022-08-10T10:08:21.989Z,101895.22
2022-08-10T10:10:51.643Z,101888.06
2022-08-10T10:14:03.929Z,101877.25
2022-08-10T10:16:41.934Z,101885.16
2022-08-10T10:19:27.221Z,101873.06
2022-08-10T10:21:56.849Z,101871.09
2022-08-10T10:24:43.680Z,101876.16
2022-08-10T10:27:38.434Z,101872.41
2022-08-10T10:30:09.672Z,101861.72
2022-08-10T10:33:07.597Z,101862.63
2022-08-10T10:35:55.346Z,101865.41
2022-08-10T10:38:27.015Z,101860.28
2022-08-10T10:41:03.764Z,101859.84
2022-08-10T10:44:01.060Z,101860.16
2022-08-10T10:46:30.848Z,101866.81
2022-08-10T10:49:27.919Z,101848.41
2022-08-10T10:52:09.168Z,101861.31
2022-08-10T10:54:44.848Z,101849.13
2022-08-10T10:57:58.516Z,101852.59
2022-08-10T11:00:13.093Z,101855.13
2022-08-10T11:02:58.907Z,101839.72
2022-08-10T11:05:31.901Z,101852.19
2022-08-10T11:08:33.918Z,101845.41
2022-08-10T11:11:20.439Z,101846.66
2022-08-10T11:14:29.096Z,101845.41
2022-08-10T11:17:09.774Z,101835.50
2022-08-10T11:20:03.418Z,101839.19
2022-08-10T11:22:40.217Z,101840.31
2022-08-10T11:25:30.360Z,101840.44
2022-08-10T11:28:29.175Z,101835.84
2022-08-10T11:30:55.605Z,101819.69
2022-08-10T11:34:11.245Z,101820.28
2022-08-10T11:37:01.101Z,101815.22
2022-08-10T11:39:49.971Z,101820.84
2022-08-10T11:43:00.711Z,101811.63
2022-08-10T11:45:32.098Z,101807.66
2022-08-10T11:48:52.931Z,101808.63
2022-08-10T11:51:35.612Z,101813.09
2022-08-10T11:54:14.550Z,101815.19
2022-08-10T11:56:50.670Z,101798.72
2022-08-10T11:59:37.368Z,101801.09
2022-08-10T12:02:06.393Z,101804.78
2022-08-10T12:04:35.112Z,101795.34
2022-08-10T12:10:02.210Z,101795.03
2022-08-10T12:10:04.616Z,101800.31
2022-08-10T12:12:46.968Z,101789.59
2022-08-10T12:15:21.723Z,101794.53
2022-08-10T12:17:55.950Z,101783.50
2022-08-10T12:20:31.366Z,101786.72
2022-08-10T12:23:07.998Z,101790.75
2022-08-10T12:25:58.465Z,101781.16
2022-08-10T12:28:50.527Z,101783.31
2022-08-10T12:31:22.990Z,101786.28
2022-08-10T12:34:04.718Z,101790.44
2022-08-10T12:36:41.855Z,101777.63
2022-08-10T12:39:26.917Z,101778.91
2022-08-10T12:42:10.811Z,101773.97
2022-08-10T12:44:50.431Z,101770.59
2022-08-10T12:47:37.153Z,101769.34
2022-08-10T12:50:20.058Z,101767.09
2022-08-10T12:53:06.790Z,101759.94
2022-08-10T12:55:34.519Z,101754.03
2022-08-10T12:58:05.473Z,101750.69
2022-08-10T13:01:15.284Z,101750.56
2022-08-10T13:04:23.828Z,101738.41
2022-08-10T13:06:34.167Z,101741.16
2022-08-10T13:09:11.083Z,101732.03
2022-08-10T13:12:44.271Z,101731.59
2022-08-10T13:14:41.733Z,101723.56
2022-08-10T13:17:09.821Z,101718.94
2022-08-10T13:19:55.043Z,101717.66
2022-08-10T13:22:27.482Z,101719.13
2022-08-10T13:24:58.736Z,101716.94
2022-08-10T13:28:01.408Z,101723.81
2022-08-10T13:30:16.694Z,101711.34
2022-08-10T13:32:49.601Z,101708.47
2022-08-10T13:35:19.608Z,101714.09
2022-08-10T13:37:48.337Z,101703.69
2022-08-10T13:40:19.085Z,101707.34
2022-08-10T13:42:47.800Z,101699.53
2022-08-10T13:45:17.900Z,101699.53
2022-08-10T13:47:50.162Z,101695.03
2022-08-10T13:50:43.828Z,101697.09
2022-08-10T13:53:15.531Z,101692.16
2022-08-10T13:55:55.380Z,101695.72
2022-08-10T13:58:30.420Z,101690.59
2022-08-10T14:00:59.306Z,101685.78
2022-08-10T14:03:28.173Z,101693.00
2022-08-10T14:05:58.292Z,101696.56
2022-08-10T14:08:31.200Z,101698.16
2022-08-10T14:11:12.347Z,101690.28
2022-08-10T14:14:07.579Z,101682.94
2022-08-10T14:16:34.915Z,101676.56
2022-08-10T14:19:10.306Z,101675.88
2022-08-10T14:21:40.963Z,101681.63
2022-08-10T14:24:20.306Z,101672.34
2022-08-10T14:26:48.429Z,101673.00
2022-08-10T14:29:18.953Z,101667.22
2022-08-10T14:32:01.157Z,101664.34
2022-08-10T14:36:16.444Z,101663.22
2022-08-10T14:37:31.225Z,101663.22
2022-08-10T14:40:08.062Z,101660.81
2022-08-10T14:42:44.640Z,101669.00
2022-08-10T14:45:20.155Z,101666.13
2022-08-10T14:47:55.944Z,101666.41
2022-08-10T14:50:32.530Z,101658.25
2022-08-10T14:53:26.497Z,101657.13
2022-08-10T14:55:58.670Z,101660.34
2022-08-10T14:58:31.070Z,101655.88
2022-08-10T15:00:58.609Z,101649.75
2022-08-10T15:04:02.302Z,101642.09
2022-08-10T15:06:19.024Z,101640.94
2022-08-10T15:08:47.611Z,101636.13
2022-08-10T15:12:13.991Z,101643.66
2022-08-10T15:14:32.127Z,101640.44
2022-08-10T15:16:55.206Z,101642.06
2022-08-10T15:20:03.459Z,101636.75
2022-08-10T15:22:36.609Z,101634.53
2022-08-10T15:25:16.008Z,101622.50
2022-08-10T15:27:53.474Z,101625.72
2022-08-10T15:30:30.375Z,101625.72
2022-08-10T15:33:59.310Z,101616.72
2022-08-10T15:36:33.396Z,101621.56
2022-08-10T15:39:02.849Z,101628.59
2022-08-10T15:41:58.915Z,101623.00
2022-08-10T15:44:38.272Z,101624.59
2022-08-10T15:47:07.917Z,101621.91
2022-08-10T15:49:50.120Z,101618.66
2022-08-10T15:53:00.044Z,101612.59
2022-08-10T15:55:43.030Z,101618.03
2022-08-10T15:58:38.790Z,101621.25
2022-08-10T16:02:04.622Z,101624.28
2022-08-10T16:04:36.754Z,101617.72
2022-08-10T16:07:10.531Z,101615.63
2022-08-10T16:10:22.540Z,101621.22
2022-08-10T16:12:36.707Z,101615.47
2022-08-10T16:15:09.815Z,101606.97
2022-08-10T16:17:54.293Z,101605.03
2022-08-10T16:20:31.279Z,101608.41
2022-08-10T16:23:02.152Z,101609.19
2022-08-10T16:25:49.778Z,101609.69
2022-08-10T16:28:23.335Z,101602.63
2022-08-10T16:30:53.094Z,101600.25
2022-08-10T16:33:53.050Z,101608.53
2022-08-10T16:36:16.664Z,101602.78
2022-08-10T16:38:46.934Z,101601.97
2022-08-10T16:42:00.805Z,101599.09
2022-08-10T16:44:04.002Z,101593.03
2022-08-10T16:46:32.606Z,101595.56
2022-08-10T16:49:01.560Z,101589.50
2022-08-10T16:51:28.583Z,101587.91
2022-08-10T16:53:58.954Z,101594.59
2022-08-10T16:56:32.625Z,101593.13
2022-08-10T16:59:01.108Z,101593.13
2022-08-10T17:01:35.950Z,101593.75
2022-08-10T17:04:09.928Z,101597.91
2022-08-10T17:06:43.047Z,101587.69
2022-08-10T17:09:16.876Z,101581.75
2022-08-10T17:11:47.629Z,101578.53
2022-08-10T17:14:14.642Z,101580.59
2022-08-10T17:16:44.177Z,101587.78
2022-08-10T17:19:14.269Z,101580.56
2022-08-10T17:21:51.147Z,101579.91
2022-08-10T17:24:22.723Z,101591.13
2022-08-10T17:26:51.074Z,101581.34
2022-08-10T17:29:58.112Z,101581.50
2022-08-10T17:32:20.675Z,101577.97
2022-08-10T17:34:52.548Z,101571.41
2022-08-10T17:37:22.558Z,101574.75
2022-08-10T17:39:58.778Z,101573.28
2022-08-10T17:42:25.604Z,101570.91
2022-08-10T17:44:54.267Z,101567.31
2022-08-10T17:47:26.316Z,101566.66
2022-08-10T17:49:58.653Z,101565.69
2022-08-10T17:52:29.088Z,101562.00
2022-08-10T17:55:00.881Z,101564.22
2022-08-10T17:57:32.793Z,101567.25
2022-08-10T18:00:01.964Z,101563.25
2022-08-10T18:02:36.491Z,101565.16
2022-08-10T18:05:03.845Z,101564.78
2022-08-10T18:07:36.000Z,101569.56
2022-08-10T18:10:05.387Z,101569.69
2022-08-10T18:12:42.800Z,101563.75
2022-08-10T18:15:13.642Z,101574.16
2022-08-10T18:17:44.713Z,101572.66
2022-08-10T18:20:13.062Z,101576.47
2022-08-10T18:22:44.840Z,101577.38
2022-08-10T18:25:18.344Z,101579.59
2022-08-10T18:28:01.304Z,101574.44
2022-08-10T18:30:36.203Z,101576.00
2022-08-10T18:33:08.633Z,101567.63
2022-08-10T18:35:35.650Z,101573.19
2022-08-10T18:38:04.890Z,101575.50
2022-08-10T18:40:36.554Z,101576.56
2022-08-10T18:44:04.465Z,101588.31
2022-08-10T18:45:56.880Z,101582.81
2022-08-10T18:48:33.212Z,101590.91
2022-08-10T18:51:06.145Z,101589.06
2022-08-10T18:53:47.908Z,101586.91
2022-08-10T18:56:20.869Z,101590.03
2022-08-10T18:59:18.654Z,101588.63
2022-08-10T19:02:07.125Z,101591.28
2022-08-10T19:05:03.378Z,101596.34
2022-08-10T19:07:57.276Z,101600.75
2022-08-10T19:10:47.052Z,101600.63
2022-08-10T19:13:25.333Z,101593.84
2022-08-10T19:15:56.438Z,101601.66
2022-08-10T19:18:32.280Z,101603.97
2022-08-10T19:21:16.320Z,101613.69
2022-08-10T19:24:02.941Z,101604.94
2022-08-10T19:26:43.817Z,101610.31
2022-08-10T19:30:09.786Z,101603.31
2022-08-10T19:32:59.612Z,101612.13
2022-08-10T19:36:03.673Z,101602.47
2022-08-10T19:38:50.491Z,101601.91
2022-08-10T19:41:41.775Z,101613.13
2022-08-10T19:44:35.436Z,101614.56
2022-08-10T19:47:16.993Z,101607.75
2022-08-10T19:50:09.233Z,101620.25
2022-08-10T19:53:06.014Z,101615.53
2022-08-10T19:55:41.583Z,101616.44
2022-08-10T19:58:20.051Z,101611.78
2022-08-10T20:01:02.320Z,101612.34
2022-08-10T20:03:47.148Z,101616.22
2022-08-10T20:06:20.569Z,101622.38
2022-08-10T20:09:02.363Z,101621.75
2022-08-10T20:11:50.059Z,101618.19
2022-08-10T20:14:30.499Z,101611.81
2022-08-10T20:17:13.335Z,101613.97
2022-08-10T20:20:04.284Z,101617.81
2022-08-10T20:22:44.631Z,101620.78
2022-08-10T20:25:20.805Z,101614.44
2022-08-10T20:27:59.599Z,101626.44
2022-08-10T20:30:32.778Z,101618.00
2022-08-10T20:33:09.496Z,101621.06
2022-08-10T20:35:53.752Z,101625.66
2022-08-10T20:38:47.257Z,101621.25
2022-08-10T20:41:46.013Z,101622.25
2022-08-10T20:44:28.266Z,101622.78
2022-08-10T20:47:02.806Z,101617.56
2022-08-10T20:49:39.475Z,101626.69
2022-08-10T20:52:07.803Z,101628.38
2022-08-10T20:54:40.429Z,101628.88
2022-08-10T20:58:04.423Z,101626.66
2022-08-10T21:00:23.242Z,101640.13
2022-08-10T21:03:07.121Z,101642.69
2022-08-10T21:05:40.591Z,101637.06
2022-08-10T21:08:35.101Z,101633.88
2022-08-10T21:11:20.818Z,101638.88
2022-08-10T21:14:32.368Z,101632.06
2022-08-10T21:17:04.615Z,101630.44
2022-08-10T21:19:40.260Z,101635.44
2022-08-10T21:22:29.324Z,101625.75
2022-08-10T21:25:02.989Z,101635.59
2022-08-10T21:27:57.685Z,101629.19
2022-08-10T21:30:36.162Z,101638.28
2022-08-10T21:33:17.761Z,101628.97
2022-08-10T21:35:52.089Z,101629.91
2022-08-10T21:38:39.914Z,101627.16
2022-08-10T21:41:57.072Z,101636.97
2022-08-10T21:45:17.041Z,101638.34
2022-08-10T21:48:18.517Z,101631.16
2022-08-10T21:54:42.721Z,101629.88
2022-08-10T21:57:58.794Z,101627.56
2022-08-10T22:00:44.110Z,101629.25
2022-08-10T22:03:39.939Z,101628.56
2022-08-10T22:06:27.815Z,101622.97
2022-08-10T22:09:21.878Z,101630.81
2022-08-10T22:12:25.096Z,101618.69
2022-08-10T22:15:24.044Z,101620.44
2022-08-10T22:18:31.287Z,101619.66
2022-08-10T22:21:45.141Z,101629.19
2022-08-10T22:25:05.297Z,101621.97
2022-08-10T22:28:02.164Z,101626.50
2022-08-10T22:31:26.877Z,101631.72
2022-08-10T22:31:27.736Z,101627.47
2022-08-10T22:34:15.597Z,101623.88
2022-08-10T22:37:11.639Z,101622.72
2022-08-10T22:40:17.127Z,101621.16
2022-08-10T22:43:10.278Z,101617.97
2022-08-10T22:46:03.198Z,101625.31
2022-08-10T22:48:48.478Z,101624.13
2022-08-10T22:51:22.957Z,101620.91
2022-08-10T22:54:31.471Z,101614.47
2022-08-10T22:57:19.544Z,101609.19
2022-08-10T22:59:47.342Z,101614.56
2022-08-10T23:02:29.874Z,101615.88
2022-08-10T23:05:05.549Z,101612.66
2022-08-10T23:07:46.377Z,101614.34
2022-08-10T23:10:15.645Z,101608.25
2022-08-10T23:12:55.045Z,101613.22
2022-08-10T23:15:51.902Z,101617.75
2022-08-10T23:19:04.539Z,101618.63
2022-08-10T23:22:01.662Z,101612.59
2022-08-10T23:24:48.737Z,101613.13
2022-08-10T23:27:37.814Z,101609.09
2022-08-10T23:30:10.547Z,101612.81
2022-08-10T23:32:46.286Z,101613.69
2022-08-10T23:36:04.585Z,101605.63
2022-08-10T23:38:08.000Z,101601.16
2022-08-10T23:40:36.216Z,101599.22
2022-08-10T23:43:04.813Z,101596.41
2022-08-10T23:45:52.474Z,101602.16
2022-08-10T23:48:27.388Z,101607.47
2022-08-10T23:50:59.866Z,101603.03
2022-08-10T23:53:30.232Z,101612.84
2022-08-10T23:56:18.136Z,101600.72
2022-08-10T23:58:50.764Z,101602.34
